Time;durP1;ratioP1;P1;durP2;ratioP2;P2;SDS_P1;SDS_P2;PMS_P1;PMS_P2;Temp;Humidity;BMP_temperature;BMP_pressure;BME280_temperature;BME280_humidity;BME280_pressure;Samples;Min_cycle;Max_cycle;Signal;HPM_P1;HPM_P2
2023/11/05 00:00:43;;;;;;;5.32;1.40;;;;;;;11.14;99.37;98004.69;5012041;28;20022;-70
2023/11/05 00:03:08;;;;;;;3.75;1.50;;;;;;;10.79;100.00;98003.66;5010841;28;20048;-70
2023/11/05 00:05:33;;;;;;;9.65;1.48;;;;;;;10.72;100.00;98004.97;5010196;28;20033;-70
2023/11/05 00:07:59;;;;;;;7.78;1.60;;;;;;;10.76;100.00;97996.13;5010685;28;20108;-70
2023/11/05 00:10:25;;;;;;;4.20;1.15;;;;;;;10.68;100.00;97993.16;5010257;28;20053;-70
2023/11/05 00:12:50;;;;;;;5.90;1.30;;;;;;;10.83;100.00;97987.78;5027220;28;20030;-70
2023/11/05 00:15:15;;;;;;;6.93;1.20;;;;;;;11.09;99.79;98001.19;5011961;28;20025;-71
2023/11/05 00:17:41;;;;;;;4.47;1.23;;;;;;;10.92;99.56;97993.41;5030097;28;20030;-71
2023/11/05 00:20:09;;;;;;;5.15;1.15;;;;;;;10.74;99.89;97975.94;5016310;28;20038;-70
2023/11/05 00:22:35;;;;;;;4.00;1.10;;;;;;;10.82;99.87;97988.84;5011925;28;20021;-70
2023/11/05 00:25:00;;;;;;;5.82;1.40;;;;;;;10.62;100.00;97983.47;5026602;28;20029;-70
2023/11/05 00:27:25;;;;;;;5.45;1.15;;;;;;;10.71;100.00;97981.88;5010711;28;20397;-70
2023/11/05 00:29:51;;;;;;;4.78;1.10;;;;;;;10.75;100.00;97982.94;5009853;28;20366;-70
2023/11/05 00:32:16;;;;;;;3.15;1.10;;;;;;;10.41;100.00;97975.41;5011149;28;20061;-70
2023/11/05 00:34:42;;;;;;;6.30;1.65;;;;;;;10.65;100.00;97983.75;4994238;28;20033;-70
2023/11/05 00:37:07;;;;;;;3.83;1.10;;;;;;;10.68;100.00;97975.13;5010326;28;20424;-70
2023/11/05 00:39:33;;;;;;;6.47;1.10;;;;;;;10.70;99.86;97977.56;5009717;28;20030;-71
2023/11/05 00:41:59;;;;;;;5.00;1.30;;;;;;;10.64;100.00;97979.44;5009099;28;20037;-70
2023/11/05 00:44:24;;;;;;;2.50;1.00;;;;;;;10.63;98.84;97969.78;5011393;28;20082;-70
2023/11/05 00:46:49;;;;;;;3.05;1.23;;;;;;;10.54;99.04;97982.13;5013464;28;20034;-70
2023/11/05 00:49:15;;;;;;;4.82;0.82;;;;;;;10.37;100.00;97968.16;5009843;28;20058;-70
2023/11/05 00:51:40;;;;;;;3.30;0.90;;;;;;;10.57;99.70;97965.47;5010557;28;20029;-70
2023/11/05 00:54:06;;;;;;;3.50;1.02;;;;;;;10.50;99.19;97962.25;5010864;28;20042;-71
2023/11/05 00:56:31;;;;;;;3.63;1.38;;;;;;;10.68;98.15;97969.75;5015360;28;20030;-70
2023/11/05 00:58:57;;;;;;;4.70;1.00;;;;;;;10.60;98.68;97969.50;5023238;28;20173;-71
2023/11/05 01:01:22;;;;;;;6.28;1.05;;;;;;;10.85;97.67;97976.75;5022922;28;20493;-70
2023/11/05 01:03:48;;;;;;;7.75;1.05;;;;;;;10.77;97.39;97970.03;4997754;28;20405;-70
2023/11/05 01:06:14;;;;;;;1.65;0.80;;;;;;;10.39;98.21;97968.66;5016290;28;20350;-70
2023/11/05 01:08:39;;;;;;;4.50;1.20;;;;;;;10.68;97.55;97974.34;5035851;28;20028;-70
2023/11/05 01:11:05;;;;;;;3.83;1.00;;;;;;;10.61;98.19;97977.28;5022141;28;20113;-70
2023/11/05 01:13:30;;;;;;;4.32;1.10;;;;;;;10.70;97.63;97983.75;5015321;28;20432;-70
2023/11/05 01:15:55;;;;;;;5.15;1.10;;;;;;;10.68;97.13;97966.25;5013787;28;20152;-70
2023/11/05 01:18:21;;;;;;;3.13;1.08;;;;;;;10.69;97.36;97978.63;5013591;28;20067;-70
2023/11/05 01:20:46;;;;;;;2.72;0.95;;;;;;;10.59;97.62;97971.38;5012984;28;20049;-70
2023/11/05 01:23:12;;;;;;;5.93;1.10;;;;;;;10.45;97.79;97972.97;5013613;28;20042;-70
2023/11/05 01:25:37;;;;;;;5.63;1.20;;;;;;;10.39;99.12;97972.16;5014425;28;20026;-71
2023/11/05 01:28:02;;;;;;;5.13;1.10;;;;;;;10.51;98.47;97975.41;5015170;28;20052;-70
2023/11/05 01:30:28;;;;;;;6.80;1.13;;;;;;;10.59;98.84;97974.06;5014374;28;20030;-70
2023/11/05 01:32:53;;;;;;;5.35;1.02;;;;;;;10.70;96.87;97962.25;4996742;28;20424;-71
2023/11/05 01:35:19;;;;;;;2.67;1.20;;;;;;;10.27;99.93;97967.06;5013013;28;20087;-70
2023/11/05 01:37:44;;;;;;;4.95;0.90;;;;;;;10.25;100.00;97960.28;5013024;28;20045;-70
2023/11/05 01:40:10;;;;;;;3.70;1.05;;;;;;;10.57;98.12;97952.03;5013898;28;20066;-70
2023/11/05 01:42:36;;;;;;;6.80;1.30;;;;;;;10.48;98.68;97961.69;5014177;28;20084;-71
2023/11/05 01:45:01;;;;;;;4.57;1.30;;;;;;;10.63;97.92;97959.03;5012918;28;20030;-71
2023/11/05 01:47:27;;;;;;;5.50;1.33;;;;;;;10.30;97.46;97896.66;5012739;28;20137;-71
2023/11/05 01:49:53;;;;;;;4.00;1.05;;;;;;;10.53;98.03;97954.44;5029069;28;20081;-71
2023/11/05 01:52:21;;;;;;;5.88;1.30;;;;;;;10.61;98.09;97944.22;5013087;28;20448;-71
2023/11/05 01:54:47;;;;;;;4.65;1.10;;;;;;;10.46;98.00;97915.44;5014016;28;20156;-71
2023/11/05 01:57:13;;;;;;;3.05;1.30;;;;;;;10.75;97.07;97939.91;5012878;28;20038;-70
2023/11/05 01:59:38;;;;;;;5.28;1.55;;;;;;;10.54;98.01;97929.16;5014057;28;20038;-71
2023/11/05 02:02:06;;;;;;;5.88;1.20;;;;;;;10.69;97.62;97933.72;5012688;28;20038;-71
2023/11/05 02:04:32;;;;;;;3.17;1.15;;;;;;;10.76;97.01;97928.06;5013732;28;20025;-71
2023/11/05 02:06:57;;;;;;;2.90;1.10;;;;;;;10.48;98.61;97930.22;5013830;28;20060;-71
2023/11/05 02:09:23;;;;;;;6.30;1.20;;;;;;;10.73;97.11;97929.44;5012515;28;20040;-71
2023/11/05 02:11:48;;;;;;;4.90;1.20;;;;;;;10.72;97.42;97927.78;5013883;28;20481;-71
2023/11/05 02:14:14;;;;;;;4.20;1.30;;;;;;;10.62;98.54;97930.50;5014059;28;20501;-71
2023/11/05 02:16:40;;;;;;;3.42;1.38;;;;;;;10.75;97.87;97915.69;5014244;28;20076;-71
2023/11/05 02:19:06;;;;;;;3.50;1.17;;;;;;;10.61;98.45;97915.44;5030619;28;20044;-71
2023/11/05 02:21:47;;;;;;;5.22;1.13;;;;;;;10.58;98.14;97906.03;5014411;28;20029;-71
2023/11/05 02:24:13;;;;;;;5.80;1.33;;;;;;;10.27;100.00;97897.19;5013454;28;20022;-71
2023/11/05 02:26:38;;;;;;;4.65;0.95;;;;;;;10.57;98.65;97892.88;5012922;28;20022;-71
2023/11/05 02:29:04;;;;;;;5.07;1.55;;;;;;;10.52;99.09;97899.03;5013655;28;20465;-71
2023/11/05 02:31:29;;;;;;;3.40;1.33;;;;;;;10.61;98.85;97898.50;5011953;28;20044;-71
2023/11/05 02:33:55;;;;;;;5.20;1.35;;;;;;;10.54;97.98;97891.53;5012115;28;20125;-71
2023/11/05 02:36:21;;;;;;;6.15;1.25;;;;;;;10.54;99.16;97882.66;5012113;28;20036;-71
2023/11/05 02:38:46;;;;;;;3.38;1.40;;;;;;;10.42;100.00;97882.91;5012176;28;20389;-71
2023/11/05 02:41:12;;;;;;;4.38;1.20;;;;;;;9.99;100.00;97881.53;5012193;28;20405;-71
2023/11/05 02:43:38;;;;;;;6.00;2.20;;;;;;;10.21;100.00;97865.97;5011873;28;20034;-71
2023/11/05 02:46:04;;;;;;;4.25;1.10;;;;;;;10.53;99.35;97871.09;5012041;28;20567;-71
2023/11/05 02:48:30;;;;;;;4.32;1.17;;;;;;;10.43;99.81;97862.22;5013395;28;20030;-71
2023/11/05 02:50:56;;;;;;;5.75;1.60;;;;;;;10.51;99.27;97859.00;5028168;28;20519;-71
2023/11/05 02:53:21;;;;;;;7.75;1.60;;;;;;;10.55;98.58;97862.75;5013233;28;20061;-71
2023/11/05 02:55:47;;;;;;;5.50;1.10;;;;;;;10.40;98.69;97858.22;5013073;28;20041;-71
2023/11/05 02:58:14;;;;;;;5.18;1.33;;;;;;;10.35;100.00;97855.50;5011900;28;20438;-71
2023/11/05 03:00:39;;;;;;;3.58;1.25;;;;;;;10.27;100.00;97848.81;5011795;28;20034;-71
2023/11/05 03:03:05;;;;;;;5.32;1.55;;;;;;;10.17;100.00;97845.28;5012107;28;20061;-71
2023/11/05 03:05:30;;;;;;;4.18;1.30;;;;;;;10.16;100.00;97860.56;4978785;28;20046;-71
2023/11/05 03:07:56;;;;;;;4.50;1.25;;;;;;;10.06;100.00;97844.47;5012415;28;20167;-71
2023/11/05 03:10:21;;;;;;;5.55;1.30;;;;;;;10.10;100.00;97857.09;5012529;28;20385;-71
2023/11/05 03:12:46;;;;;;;5.88;1.65;;;;;;;10.02;100.00;97856.81;5010856;28;20029;-71
2023/11/05 03:15:12;;;;;;;6.30;1.40;;;;;;;10.23;100.00;97858.47;5012419;28;20053;-71
2023/11/05 03:17:37;;;;;;;5.03;1.42;;;;;;;10.22;100.00;97856.81;5012049;28;20435;-71
2023/11/05 03:20:07;;;;;;;4.78;1.50;;;;;;;10.14;100.00;97856.56;5027475;28;20029;-71
2023/11/05 03:22:37;;;;;;;7.00;1.40;;;;;;;10.13;100.00;97850.38;5012161;28;20045;-71
2023/11/05 03:25:04;;;;;;;5.50;1.45;;;;;;;10.19;100.00;97856.56;5012084;28;20037;-71
2023/11/05 03:27:29;;;;;;;3.50;1.40;;;;;;;9.94;100.00;97846.63;5012338;28;20542;-71
2023/11/05 03:29:56;;;;;;;5.78;1.38;;;;;;;9.95;100.00;97856.28;5027382;28;20145;-71
2023/11/05 03:32:22;;;;;;;6.70;1.67;;;;;;;10.19;100.00;97853.88;5012237;28;20030;-71
2023/11/05 03:34:47;;;;;;;4.40;1.60;;;;;;;10.14;100.00;97845.81;4994665;28;20061;-71
2023/11/05 03:37:13;;;;;;;3.60;1.20;;;;;;;10.03;100.00;97840.44;5012788;28;20029;-70
2023/11/05 03:39:38;;;;;;;4.57;1.50;;;;;;;9.92;100.00;97856.81;5011133;28;20026;-71
2023/11/05 03:42:04;;;;;;;3.90;1.65;;;;;;;10.15;100.00;97848.22;5012108;28;20064;-71
2023/11/05 03:44:30;;;;;;;3.67;1.42;;;;;;;10.26;100.00;97860.59;5016849;28;20039;-72
2023/11/05 03:46:58;;;;;;;3.70;1.60;;;;;;;10.07;100.00;97849.56;5015753;28;20535;-71
2023/11/05 03:49:23;;;;;;;5.50;1.60;;;;;;;10.04;100.00;97838.56;5019719;28;20111;-71
2023/11/05 03:51:49;;;;;;;4.05;1.42;;;;;;;9.75;100.00;97846.31;5013075;28;20025;-70
2023/11/05 03:54:14;;;;;;;3.42;1.35;;;;;;;9.82;100.00;97850.34;5010832;28;20037;-71
2023/11/05 03:56:40;;;;;;;6.45;1.80;;;;;;;10.03;100.00;97847.69;5011250;28;20611;-71
2023/11/05 03:59:06;;;;;;;4.57;1.50;;;;;;;10.03;100.00;97845.00;5010126;28;20034;-71
2023/11/05 04:01:31;;;;;;;5.10;1.52;;;;;;;10.01;100.00;97847.16;5011520;28;20033;-71
2023/11/05 04:03:57;;;;;;;5.15;1.88;;;;;;;9.84;100.00;97842.03;5026649;28;20044;-71
2023/11/05 04:06:22;;;;;;;6.70;1.50;;;;;;;9.94;100.00;97809.00;5010211;28;20033;-71
2023/11/05 04:08:48;;;;;;;4.90;1.80;;;;;;;9.89;100.00;97845.53;5010198;28;20530;-71
2023/11/05 04:11:14;;;;;;;8.80;2.05;;;;;;;9.81;100.00;97840.69;5010086;28;20549;-71
2023/11/05 04:13:39;;;;;;;4.75;1.60;;;;;;;10.20;100.00;97850.09;5009641;28;20112;-71
2023/11/05 04:16:05;;;;;;;4.07;1.48;;;;;;;10.31;100.00;97833.75;5011707;28;20132;-71
2023/11/05 04:18:31;;;;;;;4.55;1.80;;;;;;;10.21;100.00;97841.78;5011635;28;20045;-71
2023/11/05 04:20:56;;;;;;;6.10;1.70;;;;;;;10.24;100.00;97832.38;5011588;28;20489;-70
2023/11/05 04:23:23;;;;;;;4.10;1.88;;;;;;;10.15;100.00;97837.47;5011371;28;20034;-71
2023/11/05 04:25:48;;;;;;;4.20;1.70;;;;;;;10.21;100.00;97831.03;5015617;28;20041;-71
2023/11/05 04:28:14;;;;;;;7.90;1.73;;;;;;;10.30;100.00;97825.97;5014011;28;20474;-71
2023/11/05 04:30:39;;;;;;;6.35;1.80;;;;;;;10.11;100.00;97834.53;5012760;28;20056;-71
2023/11/05 04:33:05;;;;;;;7.00;2.00;;;;;;;9.97;100.00;97827.28;5011042;28;20160;-71
2023/11/05 04:35:31;;;;;;;3.85;1.65;;;;;;;9.91;100.00;97831.03;5010253;28;20034;-71
2023/11/05 04:37:56;;;;;;;4.35;2.25;;;;;;;10.12;100.00;97824.59;5010191;28;20092;-71
2023/11/05 04:40:22;;;;;;;4.80;1.90;;;;;;;10.07;100.00;97814.66;4994086;28;20029;-71
2023/11/05 04:42:49;;;;;;;3.58;1.70;;;;;;;10.02;100.00;97803.09;5010334;28;20057;-70
2023/11/05 04:45:15;;;;;;;4.45;1.85;;;;;;;9.88;100.00;97817.06;5009872;28;20394;-71
2023/11/05 04:47:40;;;;;;;4.53;1.90;;;;;;;9.93;100.00;97815.44;5009569;28;20057;-71
2023/11/05 04:50:07;;;;;;;5.68;2.00;;;;;;;9.97;100.00;97811.97;5024335;28;20069;-71
2023/11/05 04:52:32;;;;;;;8.43;1.90;;;;;;;10.19;100.00;97809.00;5010283;28;20034;-71
2023/11/05 04:54:59;;;;;;;5.43;2.00;;;;;;;10.12;100.00;97798.50;5022388;28;20125;-70
2023/11/05 04:57:25;;;;;;;5.25;2.03;;;;;;;10.10;100.00;97810.63;5010171;28;20037;-71
2023/11/05 04:59:50;;;;;;;6.00;1.70;;;;;;;9.86;100.00;97805.75;5009435;28;20045;-71
2023/11/05 05:02:16;;;;;;;6.18;2.10;;;;;;;10.09;100.00;97800.94;4993428;28;20041;-71
2023/11/05 05:04:41;;;;;;;4.97;2.20;;;;;;;10.10;100.00;97799.88;5009816;28;20112;-71
2023/11/05 05:07:06;;;;;;;7.82;2.38;;;;;;;10.15;100.00;97791.00;5010863;28;20029;-71
2023/11/05 05:09:32;;;;;;;5.18;2.00;;;;;;;10.17;100.00;97795.03;5011278;28;20048;-71
2023/11/05 05:11:58;;;;;;;4.35;2.25;;;;;;;10.02;100.00;97793.16;5009744;28;20057;-70
2023/11/05 05:14:23;;;;;;;4.68;2.00;;;;;;;9.91;100.00;97791.56;5009505;28;20121;-71
2023/11/05 05:16:49;;;;;;;5.20;2.70;;;;;;;9.71;100.00;97797.72;5010674;28;20030;-71
2023/11/05 05:19:14;;;;;;;3.42;1.98;;;;;;;9.61;100.00;97786.97;5009978;28;20033;-71
2023/11/05 05:21:43;;;;;;;4.95;2.58;;;;;;;9.86;100.00;97795.03;5010052;28;20040;-71
2023/11/05 05:24:09;;;;;;;5.13;2.05;;;;;;;9.81;100.00;97791.56;5010920;28;20019;-70
2023/11/05 05:26:35;;;;;;;5.65;2.25;;;;;;;9.97;100.00;97800.44;5010699;28;20025;-71
2023/11/05 05:29:00;;;;;;;3.63;2.13;;;;;;;9.68;100.00;97776.78;5010520;28;20022;-71
2023/11/05 05:31:25;;;;;;;4.85;1.98;;;;;;;9.94;100.00;97792.91;5009272;28;20034;-71
2023/11/05 05:33:50;;;;;;;5.63;2.60;;;;;;;9.94;100.00;97791.00;5009605;28;20060;-71
2023/11/05 05:36:16;;;;;;;4.60;2.17;;;;;;;10.01;100.00;97778.13;5009844;28;20033;-71
2023/11/05 05:38:42;;;;;;;4.57;2.30;;;;;;;9.98;100.00;97792.09;5010104;28;20113;-72
2023/11/05 05:41:07;;;;;;;7.75;2.55;;;;;;;10.07;100.00;97784.31;5012772;28;20590;-71
2023/11/05 05:43:33;;;;;;;4.57;2.35;;;;;;;9.89;100.00;97772.19;5012723;28;20029;-71
2023/11/05 05:45:58;;;;;;;3.67;2.10;;;;;;;9.93;100.00;97764.41;5013549;28;20060;-71
2023/11/05 05:48:24;;;;;;;6.63;2.25;;;;;;;9.75;100.00;97763.88;5013733;28;20026;-71
2023/11/05 05:50:50;;;;;;;4.68;2.72;;;;;;;10.21;100.00;97788.03;5028861;28;20081;-71
2023/11/05 05:53:15;;;;;;;5.32;2.33;;;;;;;9.94;100.00;97777.59;5013873;28;20034;-71
2023/11/05 05:55:41;;;;;;;6.05;2.35;;;;;;;9.99;100.00;97780.25;5029188;28;20689;-70
2023/11/05 05:58:07;;;;;;;8.07;2.50;;;;;;;10.02;100.00;97781.59;5021244;28;20034;-71
2023/11/05 06:00:32;;;;;;;6.88;2.40;;;;;;;9.94;100.00;97780.28;5014199;28;20398;-71
2023/11/05 06:02:58;;;;;;;4.53;2.30;;;;;;;9.91;100.00;97770.06;5013716;28;20453;-70
2023/11/05 06:05:23;;;;;;;5.63;2.25;;;;;;;9.97;100.00;97763.63;5012653;28;20141;-70
2023/11/05 06:07:48;;;;;;;3.88;2.50;;;;;;;9.97;100.00;97760.13;5012750;28;20022;-71
2023/11/05 06:10:15;;;;;;;9.02;2.95;;;;;;;10.20;100.00;97777.53;5013568;28;20481;-71
2023/11/05 06:12:40;;;;;;;5.93;2.50;;;;;;;10.03;100.00;97772.47;5013253;28;20029;-71
2023/11/05 06:15:07;;;;;;;7.53;2.80;;;;;;;10.12;100.00;97778.91;5013057;28;20025;-71
2023/11/05 06:17:32;;;;;;;4.30;2.47;;;;;;;9.92;100.00;97766.28;5012915;28;20134;-71
2023/11/05 06:19:58;;;;;;;6.93;2.60;;;;;;;9.91;100.00;97770.06;5012713;28;20121;-70
2023/11/05 06:22:23;;;;;;;6.50;2.55;;;;;;;9.98;100.00;97767.91;5012159;28;20042;-71
2023/11/05 06:24:48;;;;;;;6.20;2.70;;;;;;;10.04;100.00;97766.03;5012236;28;20021;-71
2023/11/05 06:27:14;;;;;;;6.15;2.80;;;;;;;10.08;100.00;97764.41;5028316;28;20030;-71
2023/11/05 06:29:39;;;;;;;5.47;2.78;;;;;;;10.20;100.00;97756.06;5011956;28;20034;-71
2023/11/05 06:32:05;;;;;;;5.35;2.92;;;;;;;10.07;100.00;97763.59;5012191;28;20029;-71
2023/11/05 06:34:31;;;;;;;6.65;2.80;;;;;;;10.03;100.00;97759.03;5011486;28;20672;-71
2023/11/05 06:37:02;;;;;;;4.30;2.58;;;;;;;10.23;100.00;97756.34;5011495;28;20030;-71
2023/11/05 06:39:28;;;;;;;9.77;3.03;;;;;;;10.10;100.00;97759.59;5013106;28;20029;-71
2023/11/05 06:41:54;;;;;;;5.53;2.75;;;;;;;10.29;100.00;97763.31;5028116;28;20025;-71
2023/11/05 06:44:19;;;;;;;6.28;2.63;;;;;;;10.24;100.00;97749.88;5014457;28;20029;-71
2023/11/05 06:46:45;;;;;;;6.43;2.90;;;;;;;9.97;100.00;97754.75;5013396;28;20037;-71
2023/11/05 06:49:11;;;;;;;5.85;2.80;;;;;;;9.91;100.00;97758.53;5012457;28;20417;-71
2023/11/05 06:51:36;;;;;;;5.55;2.92;;;;;;;10.09;100.00;97753.38;5011702;28;20045;-71
2023/11/05 06:54:01;;;;;;;6.03;3.00;;;;;;;10.14;100.00;97754.47;5011946;28;20362;-70
2023/11/05 06:56:27;;;;;;;8.93;2.63;;;;;;;10.06;100.00;97756.59;5013146;28;20049;-68
2023/11/05 06:58:52;;;;;;;5.50;2.88;;;;;;;10.16;100.00;97755.00;5012830;28;20033;-66
2023/11/05 07:01:18;;;;;;;5.68;3.20;;;;;;;10.18;100.00;97742.91;5013309;28;20061;-69
2023/11/05 07:03:45;;;;;;;5.82;2.60;;;;;;;10.22;100.00;97754.72;5013768;28;20033;-68
2023/11/05 07:06:14;;;;;;;5.82;2.75;;;;;;;9.97;100.00;97752.06;5011604;28;20026;-69
2023/11/05 07:08:40;;;;;;;5.88;2.85;;;;;;;10.20;100.00;97753.38;5013285;28;20026;-68
2023/11/05 07:11:06;;;;;;;6.80;2.55;;;;;;;9.90;100.00;97749.66;5012411;28;20096;-70
2023/11/05 07:13:32;;;;;;;6.45;2.78;;;;;;;10.14;100.00;97755.28;5012570;28;20494;-70
2023/11/05 07:15:57;;;;;;;7.05;2.90;;;;;;;10.25;100.00;97753.38;5030325;28;20037;-69
2023/11/05 07:18:23;;;;;;;6.90;2.80;;;;;;;10.29;100.00;97754.47;5017450;28;20022;-73
2023/11/05 07:20:48;;;;;;;7.32;3.00;;;;;;;10.52;100.00;97753.06;5011018;28;20496;-70
2023/11/05 07:23:14;;;;;;;8.23;3.17;;;;;;;10.48;100.00;97749.31;5012384;28;20029;-71
2023/11/05 07:25:40;;;;;;;5.40;2.88;;;;;;;10.50;100.00;97761.41;5010988;28;20030;-71
2023/11/05 07:28:05;;;;;;;4.70;2.75;;;;;;;10.56;100.00;97760.31;5010733;28;20084;-70
2023/11/05 07:30:31;;;;;;;6.72;2.97;;;;;;;10.46;100.00;97760.34;5011930;28;20030;-69
2023/11/05 07:32:56;;;;;;;4.55;2.78;;;;;;;10.48;100.00;97757.38;5012328;28;20029;-71
2023/11/05 07:35:23;;;;;;;6.65;3.00;;;;;;;10.46;100.00;97746.91;5012250;28;20102;-70
2023/11/05 07:37:49;;;;;;;4.93;3.13;;;;;;;10.46;100.00;97743.41;5012883;28;20093;-70
2023/11/05 07:40:14;;;;;;;5.55;2.80;;;;;;;10.38;100.00;97760.91;5012355;28;20488;-69
2023/11/05 07:42:41;;;;;;;6.93;3.10;;;;;;;10.40;100.00;97739.94;5011259;28;20029;-70
2023/11/05 07:45:06;;;;;;;4.60;2.80;;;;;;;10.52;100.00;97764.63;5012321;28;20449;-70
2023/11/05 07:47:32;;;;;;;8.20;2.85;;;;;;;10.53;100.00;97749.31;5012118;28;20105;-70
2023/11/05 07:49:57;;;;;;;5.95;2.72;;;;;;;10.50;100.00;97755.25;5011631;28;20093;-70
2023/11/05 07:52:23;;;;;;;6.15;2.80;;;;;;;10.48;100.00;97757.38;5010218;28;20141;-69
2023/11/05 07:54:48;;;;;;;11.63;3.10;;;;;;;10.54;100.00;97759.78;5011899;28;20026;-70
2023/11/05 07:57:14;;;;;;;5.95;3.13;;;;;;;10.44;100.00;97751.75;5016060;28;20034;-70
2023/11/05 07:59:39;;;;;;;7.20;3.00;;;;;;;10.58;100.00;97762.72;5020366;28;20029;-69
2023/11/05 08:02:05;;;;;;;5.40;2.95;;;;;;;10.38;100.00;97739.41;5016982;28;20040;-69
2023/11/05 08:04:30;;;;;;;5.95;3.78;;;;;;;10.48;100.00;97763.56;5018116;28;20033;-70
2023/11/05 08:06:56;;;;;;;4.80;3.05;;;;;;;10.56;100.00;97751.44;5020151;28;20543;-69
2023/11/05 08:09:22;;;;;;;5.82;3.10;;;;;;;10.58;100.00;97768.09;5022348;28;20025;-70
2023/11/05 08:11:51;;;;;;;5.57;2.85;;;;;;;10.49;100.00;97757.09;5035614;28;20018;-69
2023/11/05 08:14:17;;;;;;;7.93;3.13;;;;;;;10.66;100.00;97767.56;5020056;28;20041;-71
2023/11/05 08:16:42;;;;;;;6.80;3.35;;;;;;;10.77;100.00;97765.63;5021840;28;20021;-70
2023/11/05 08:19:07;;;;;;;7.72;3.17;;;;;;;10.84;100.00;97766.13;5020143;28;20556;-70
2023/11/05 08:21:33;;;;;;;5.97;3.10;;;;;;;10.67;100.00;97763.78;5020649;28;20092;-69
2023/11/05 08:23:58;;;;;;;10.68;3.30;;;;;;;10.64;100.00;97748.19;5019847;28;20025;-69
2023/11/05 08:26:24;;;;;;;6.20;3.42;;;;;;;10.70;100.00;97759.75;4995732;28;20476;-69
2023/11/05 08:28:50;;;;;;;6.95;3.38;;;;;;;10.79;100.00;97752.69;5010968;28;20041;-70
2023/11/05 08:31:15;;;;;;;5.80;2.97;;;;;;;10.66;100.00;97748.72;5009834;28;20052;-69
2023/11/05 08:33:41;;;;;;;5.35;3.00;;;;;;;10.88;100.00;97751.06;5009324;28;20033;-70
2023/11/05 08:36:08;;;;;;;6.80;2.88;;;;;;;10.71;100.00;97756.75;5011478;28;20025;-69
2023/11/05 08:38:33;;;;;;;8.18;3.50;;;;;;;10.79;100.00;97756.22;5025443;28;20022;-70
2023/11/05 08:40:59;;;;;;;11.43;3.75;;;;;;;10.65;100.00;97755.16;5017436;28;20076;-70
2023/11/05 08:43:24;;;;;;;6.60;2.95;;;;;;;10.63;100.00;97751.97;5010200;28;20122;-70
2023/11/05 08:45:50;;;;;;;7.80;3.15;;;;;;;10.49;100.00;97749.03;5011444;28;20038;-70
2023/11/05 08:48:16;;;;;;;8.80;3.17;;;;;;;10.86;100.00;97741.63;5011364;28;20037;-70
2023/11/05 08:50:41;;;;;;;6.03;3.28;;;;;;;10.90;100.00;97737.34;5009593;28;20484;-70
2023/11/05 08:53:07;;;;;;;8.60;3.33;;;;;;;10.96;100.00;97746.97;5011330;28;20125;-70
2023/11/05 08:55:35;;;;;;;6.72;3.13;;;;;;;11.25;100.00;97744.41;5009813;28;20064;-70
2023/11/05 08:58:00;;;;;;;7.43;3.10;;;;;;;11.15;100.00;97739.88;5008785;28;20033;-70
2023/11/05 09:00:29;;;;;;;7.95;2.92;;;;;;;11.09;100.00;97746.38;5010103;28;20116;-70
2023/11/05 09:02:55;;;;;;;7.55;3.03;;;;;;;11.07;100.00;97748.56;5009181;28;20026;-70
2023/11/05 09:05:23;;;;;;;5.30;2.33;;;;;;;10.84;100.00;97741.94;5009487;28;20105;-69
2023/11/05 09:07:51;;;;;;;6.40;2.78;;;;;;;10.76;100.00;97754.06;5009115;28;20105;-70
2023/11/05 09:10:18;;;;;;;4.32;2.63;;;;;;;10.89;100.00;97739.19;5008100;28;20034;-70
2023/11/05 09:12:44;;;;;;;8.40;2.78;;;;;;;10.95;100.00;97746.16;5009317;28;20740;-70
2023/11/05 09:15:10;;;;;;;6.95;2.92;;;;;;;11.07;100.00;97747.75;5010377;28;20037;-70
2023/11/05 09:17:36;;;;;;;6.97;2.80;;;;;;;11.03;100.00;97742.13;5011676;28;20026;-70
2023/11/05 09:20:01;;;;;;;7.75;2.35;;;;;;;10.93;100.00;97739.47;5011730;28;20030;-69
2023/11/05 09:22:26;;;;;;;4.32;2.55;;;;;;;10.94;100.00;97741.06;5011961;28;20451;-70
2023/11/05 09:24:52;;;;;;;5.78;2.92;;;;;;;11.13;100.00;97738.56;5011510;28;20064;-70
2023/11/05 09:27:18;;;;;;;6.78;2.78;;;;;;;11.14;100.00;97737.47;5013319;28;20037;-70
2023/11/05 09:29:43;;;;;;;6.60;2.50;;;;;;;11.22;99.85;97723.44;5011778;28;20061;-70
2023/11/05 09:32:08;;;;;;;5.93;2.83;;;;;;;11.52;99.77;97744.78;4996111;28;20025;-70
2023/11/05 09:34:36;;;;;;;7.18;2.80;;;;;;;11.34;98.54;97742.75;5029745;28;20061;-70
2023/11/05 09:37:02;;;;;;;4.40;2.50;;;;;;;11.41;98.83;97731.66;5013297;28;20493;-70
2023/11/05 09:39:27;;;;;;;5.50;2.38;;;;;;;11.22;98.11;97724.22;5014406;28;20038;-70
2023/11/05 09:41:53;;;;;;;7.20;2.70;;;;;;;11.53;97.49;97745.59;5014263;28;20073;-70
2023/11/05 09:44:21;;;;;;;5.95;2.35;;;;;;;11.36;98.05;97742.47;5014167;28;20030;-70
2023/11/05 09:46:50;;;;;;;4.55;2.40;;;;;;;11.28;96.48;97733.09;5012579;28;20030;-69
2023/11/05 09:49:15;;;;;;;6.57;2.22;;;;;;;11.36;98.04;97729.00;5015073;28;20069;-70
2023/11/05 09:51:45;;;;;;;4.70;2.03;;;;;;;11.50;96.01;97736.16;5018497;28;20093;-70
2023/11/05 09:54:11;;;;;;;5.35;2.40;;;;;;;11.60;96.10;97734.50;5024393;28;20026;-70
2023/11/05 09:56:36;;;;;;;4.53;2.50;;;;;;;11.49;95.21;97739.97;5013245;28;20045;-70
2023/11/05 09:59:02;;;;;;;4.68;2.28;;;;;;;11.62;96.08;97738.53;5012913;28;20034;-70
2023/11/05 10:01:30;;;;;;;5.47;2.47;;;;;;;11.42;96.45;97734.09;5012953;28;20092;-70
2023/11/05 10:03:56;;;;;;;3.42;2.03;;;;;;;10.94;96.56;97728.44;5013210;28;20376;-70
2023/11/05 10:06:21;;;;;;;5.88;2.55;;;;;;;11.32;97.69;97739.50;5014073;28;20434;-70
2023/11/05 10:08:47;;;;;;;5.60;2.58;;;;;;;11.48;96.31;97732.94;5012859;28;20073;-70
2023/11/05 10:11:13;;;;;;;8.82;2.33;;;;;;;11.34;96.49;97736.56;5029144;28;20504;-70
2023/11/05 10:13:38;;;;;;;5.43;2.50;;;;;;;11.38;95.05;97732.22;5012734;28;20029;-70
2023/11/05 10:16:05;;;;;;;3.25;2.20;;;;;;;10.90;98.02;97732.75;5013834;28;20048;-70
2023/11/05 10:18:38;;;;;;;3.58;2.38;;;;;;;11.38;97.33;97738.41;5014055;28;20029;-70
2023/11/05 10:21:04;;;;;;;5.95;2.50;;;;;;;11.39;96.45;97726.56;5013803;28;20497;-69
2023/11/05 10:23:31;;;;;;;5.13;2.30;;;;;;;11.01;99.44;97741.56;5012276;28;20060;-70
2023/11/05 10:25:56;;;;;;;5.13;2.63;;;;;;;11.28;98.15;97747.34;5013708;28;20076;-70
2023/11/05 10:28:23;;;;;;;5.53;2.50;;;;;;;11.29;98.58;97743.59;5011760;28;20400;-70
2023/11/05 10:30:51;;;;;;;4.18;2.28;;;;;;;11.29;98.21;97748.97;5013519;28;20028;-70
2023/11/05 10:33:17;;;;;;;6.85;2.63;;;;;;;11.53;97.15;97742.88;5013531;28;20045;-70
2023/11/05 10:35:44;;;;;;;5.18;2.47;;;;;;;11.31;98.20;97737.91;5012882;28;20050;-70
2023/11/05 10:38:13;;;;;;;6.35;2.78;;;;;;;11.28;98.12;97733.09;5013649;28;20030;-70
2023/11/05 10:40:38;;;;;;;6.03;2.50;;;;;;;11.62;96.73;97735.81;5013296;28;20057;-70
2023/11/05 10:43:04;;;;;;;5.47;2.65;;;;;;;11.68;95.97;97728.50;5012993;28;20485;-69
2023/11/05 10:45:31;;;;;;;5.43;2.78;;;;;;;11.75;95.77;97735.19;5013342;28;20025;-70
2023/11/05 10:47:57;;;;;;;5.53;2.80;;;;;;;11.72;96.39;97734.91;5028410;28;20034;-70
2023/11/05 10:50:25;;;;;;;5.20;2.38;;;;;;;11.55;97.31;97735.31;5013397;28;20045;-70
2023/11/05 10:52:56;;;;;;;5.57;2.60;;;;;;;11.47;97.44;97725.16;5017243;28;20022;-70
2023/11/05 10:55:32;;;;;;;8.95;2.42;;;;;;;11.75;96.41;97732.50;5013537;28;20026;-69
2023/11/05 10:57:59;;;;;;;8.88;2.63;;;;;;;11.76;95.94;97727.91;5028501;28;20053;-69
2023/11/05 11:00:25;;;;;;;3.92;2.60;;;;;;;11.68;95.54;97725.78;5013203;28;20026;-70
2023/11/05 11:02:51;;;;;;;6.72;2.50;;;;;;;11.65;95.48;97694.84;5013534;28;20030;-70
2023/11/05 11:05:20;;;;;;;5.57;2.40;;;;;;;11.93;95.21;97732.91;5012166;28;20128;-70
2023/11/05 11:07:46;;;;;;;3.92;2.28;;;;;;;11.71;94.80;97736.81;5013080;28;20440;-70
2023/11/05 11:10:19;;;;;;;7.22;2.47;;;;;;;11.72;94.74;97724.97;5012844;28;20033;-70
2023/11/05 11:12:45;;;;;;;5.68;2.70;;;;;;;11.94;94.01;97734.50;5012985;28;20455;-70
2023/11/05 11:15:30;;;;;;;5.53;2.30;;;;;;;12.10;93.35;97730.59;5012950;28;20112;-70
2023/11/05 11:18:03;;;;;;;4.82;2.22;;;;;;;12.08;93.01;97732.75;5012743;28;20097;-70
2023/11/05 11:20:31;;;;;;;5.25;2.40;;;;;;;11.73;93.49;97733.84;5012545;28;20030;-70
2023/11/05 11:23:01;;;;;;;6.78;2.45;;;;;;;11.66;94.12;97734.16;5023257;28;20030;-70